Terminal Aerodrome Forecast
Issued by NWS Paducah, KY

Home | Current Version | Previous Version | Graphics & Text | Print | Product List | Glossary On
Versions: 1 2 3 4 5 6 7 8 9 10 11 12 13 14 15
062
FTUS43 KPAH 021120
TAFEVV
TAF
KEVV 021120Z 0212/0312 29006KT P6SM SKC
     FM030000 36002KT P6SM SKC=

USA.gov is the U.S. government's official web portal to all federal, state and local government web resources and services.